CheckWX is a tool to help pilots better visualize weather data.  It is not intended as a substitute for an official pre-flight weather briefing.

20:49:27 UTC

KDTL METAR
Detroit Lakes-Wething Field Airport
Detroit Lakes, Minnesota, USA
Current

33 mins ago

KDTL 182016Z AUTO 33010KT 10SM CLR M14/M17 A3047 RMK AO2
Observed
Feb-18 @ 20:16 UTC
Wind
  • 330° at 10 KTS
Visibility
10 SM
Flight Rules
VFR
Cloud Levels
  • Clear skies
Temperature
-14°C / 7°F
Dewpoint
-17°C / 1°F
Humidity
78%
Altimeter
30.47" Hg
Pressure
1031.81 hPa
Previous

34 mins ago

KDTL 182015Z AUTO 33009KT 10SM CLR M14/M17 A3047 RMK AO2
Observed
Feb-18 @ 20:15 UTC
Wind
  • 330° at 9 KTS
Visibility
10 SM
Flight Rules
VFR
Cloud Levels
  • Clear skies
Temperature
-14°C / 7°F
Dewpoint
-17°C / 1°F
Humidity
78%
Altimeter
30.47" Hg
Pressure
1031.81 hPa
Previous

53 mins ago

KDTL 181956Z AUTO 32008KT 10SM CLR M14/M17 A3048 RMK AO2
Observed
Feb-18 @ 19:56 UTC
Wind
  • 320° at 8 KTS
Visibility
10 SM
Flight Rules
VFR
Cloud Levels
  • Clear skies
Temperature
-14°C / 7°F
Dewpoint
-17°C / 1°F
Humidity
78%
Altimeter
30.48" Hg
Pressure
1032.21 hPa